首页
METAR-TAF:

METAR-TAF

机场 :

都柏林机场

都柏林, 爱尔兰

纬度: 53-26N, 经度: 006-15W, 海拔: 68米

当前天气观测

该预报发布于14分钟前的01:00 UTC
风速4节,风向东转东南
温度 9°C
湿度 93%
气压 1037 hPa
能見度: 8000
少量云层高于1200英尺
散云层高于5000英尺
多云层高于20000英尺

METAR: EIDW 270100Z 11004KT 8000 FEW012 SCT050 BKN200 09/08 Q1037 NOSIG

时间: 02:14 (01:14 UTC)

预报

该预报发布于2小时和14分钟前的23:00 UTC
预报有效从27日的 00点(UTC)到 27日的 24点(UTC)
风速5节,风向
能见度10公里或以上
少量云层高于2000英尺
多云层高于4500英尺
几率 30% :
短暂存在
从 27日的 00点(UTC)到 27日的 05点(UTC)
能見度: 4000
轻雾
成为
从 27日的 03点(UTC)到 27日的 05点(UTC)
风速5节,风向东转东南
成为
从 27日的 11点(UTC)到 27日的 13点(UTC)
风速10节,风向东转东南
成为
从 27日的 22点(UTC)到 27日的 24点(UTC)
风速5节,风向东转东南

TAF: EIDW 262300Z 2700/2724 08005KT 9999 FEW020 BKN045 PROB30 TEMPO 2700/2705 4000 BR BECMG 2703/2705 11005KT BECMG 2711/2713 12010KT BECMG 2722/2724 12005KT

超过4000个机场的气象观测和天气预报(METAR&TAF报告)。

可查询的气象台以黄色和红色小点在地图上表示。

将鼠标移到小点上方,可查看气象台名称。

然后点击查看天气观测和预报。

如需切换地图:点击带黑十字的绿色按钮放大地图;点击带横线的绿色按钮缩小地图;或者点击绿色箭头查看邻近地区的地图。


METAR-TAF: